sensor_id;sensor_type;location;lat;lon;timestamp;temperature;humidity
57636;DHT22;43465;50.728;4.160;2023-03-15T00:00:27;3.90;99.90
57636;DHT22;43465;50.728;4.160;2023-03-15T00:02:53;3.90;99.90
57636;DHT22;43465;50.728;4.160;2023-03-15T00:05:20;4.00;99.90
57636;DHT22;43465;50.728;4.160;2023-03-15T00:07:46;4.00;99.90
57636;DHT22;43465;50.728;4.160;2023-03-15T00:10:12;4.10;99.90
57636;DHT22;43465;50.728;4.160;2023-03-15T00:12:39;4.10;99.90
57636;DHT22;43465;50.728;4.160;2023-03-15T00:15:07;4.20;99.90
57636;DHT22;43465;50.728;4.160;2023-03-15T00:17:33;4.20;99.90
57636;DHT22;43465;50.728;4.160;2023-03-15T00:19:59;4.30;99.90
57636;DHT22;43465;50.728;4.160;2023-03-15T00:22:25;4.30;99.90
57636;DHT22;43465;50.728;4.160;2023-03-15T00:24:51;4.40;99.90
57636;DHT22;43465;50.728;4.160;2023-03-15T00:27:16;4.40;99.90
57636;DHT22;43465;50.728;4.160;2023-03-15T00:29:42;4.50;99.90
57636;DHT22;43465;50.728;4.160;2023-03-15T00:32:08;4.60;99.90
57636;DHT22;43465;50.728;4.160;2023-03-15T00:34:33;4.70;99.90
57636;DHT22;43465;50.728;4.160;2023-03-15T00:36:59;4.90;99.90
57636;DHT22;43465;50.728;4.160;2023-03-15T00:39:25;5.00;99.90
57636;DHT22;43465;50.728;4.160;2023-03-15T00:41:51;5.00;99.90
57636;DHT22;43465;50.728;4.160;2023-03-15T00:44:22;5.00;99.90
57636;DHT22;43465;50.728;4.160;2023-03-15T00:46:47;5.00;99.90
57636;DHT22;43465;50.728;4.160;2023-03-15T00:49:13;5.00;99.90
57636;DHT22;43465;50.728;4.160;2023-03-15T00:51:39;5.00;99.90
57636;DHT22;43465;50.728;4.160;2023-03-15T00:54:04;5.00;99.90
57636;DHT22;43465;50.728;4.160;2023-03-15T00:56:30;4.90;99.90
57636;DHT22;43465;50.728;4.160;2023-03-15T00:58:56;4.90;99.90
57636;DHT22;43465;50.728;4.160;2023-03-15T01:01:27;4.90;99.90
57636;DHT22;43465;50.728;4.160;2023-03-15T01:03:54;5.10;99.90
57636;DHT22;43465;50.728;4.160;2023-03-15T01:06:22;5.20;99.90
57636;DHT22;43465;50.728;4.160;2023-03-15T01:08:49;5.20;99.90
57636;DHT22;43465;50.728;4.160;2023-03-15T01:11:20;5.20;99.90
57636;DHT22;43465;50.728;4.160;2023-03-15T01:13:49;5.20;99.90
57636;DHT22;43465;50.728;4.160;2023-03-15T01:16:15;5.30;99.90
57636;DHT22;43465;50.728;4.160;2023-03-15T01:18:41;5.30;99.90
57636;DHT22;43465;50.728;4.160;2023-03-15T01:21:08;5.40;99.90
57636;DHT22;43465;50.728;4.160;2023-03-15T01:23:34;5.40;99.90
57636;DHT22;43465;50.728;4.160;2023-03-15T01:26:05;5.30;99.90
57636;DHT22;43465;50.728;4.160;2023-03-15T01:28:31;5.30;99.90
57636;DHT22;43465;50.728;4.160;2023-03-15T01:30:57;5.20;99.90
57636;DHT22;43465;50.728;4.160;2023-03-15T01:33:22;5.30;99.90
57636;DHT22;43465;50.728;4.160;2023-03-15T01:36:00;5.30;99.90
57636;DHT22;43465;50.728;4.160;2023-03-15T01:38:26;5.30;99.90
57636;DHT22;43465;50.728;4.160;2023-03-15T01:40:51;5.30;99.90
57636;DHT22;43465;50.728;4.160;2023-03-15T01:43:21;5.30;99.90
57636;DHT22;43465;50.728;4.160;2023-03-15T01:48:16;5.50;99.90
57636;DHT22;43465;50.728;4.160;2023-03-15T01:50:42;5.60;99.90
57636;DHT22;43465;50.728;4.160;2023-03-15T01:53:08;5.60;99.90
57636;DHT22;43465;50.728;4.160;2023-03-15T01:55:34;5.60;99.90
57636;DHT22;43465;50.728;4.160;2023-03-15T01:58:01;5.60;99.90
57636;DHT22;43465;50.728;4.160;2023-03-15T02:00:31;5.60;99.90
57636;DHT22;43465;50.728;4.160;2023-03-15T02:03:05;5.60;99.90
57636;DHT22;43465;50.728;4.160;2023-03-15T02:05:36;5.60;99.90
57636;DHT22;43465;50.728;4.160;2023-03-15T02:08:05;5.60;99.90
57636;DHT22;43465;50.728;4.160;2023-03-15T02:10:36;5.60;99.90
57636;DHT22;43465;50.728;4.160;2023-03-15T02:13:05;5.60;99.90
57636;DHT22;43465;50.728;4.160;2023-03-15T02:15:31;5.60;99.90
57636;DHT22;43465;50.728;4.160;2023-03-15T02:17:57;5.60;99.90
57636;DHT22;43465;50.728;4.160;2023-03-15T02:23:20;5.60;99.90
57636;DHT22;43465;50.728;4.160;2023-03-15T02:28:32;5.60;99.90
57636;DHT22;43465;50.728;4.160;2023-03-15T02:30:58;5.60;99.90
57636;DHT22;43465;50.728;4.160;2023-03-15T02:33:29;5.60;99.90
57636;DHT22;43465;50.728;4.160;2023-03-15T02:36:08;5.60;99.90
57636;DHT22;43465;50.728;4.160;2023-03-15T02:38:33;5.60;99.90
57636;DHT22;43465;50.728;4.160;2023-03-15T02:40:59;5.60;99.90
57636;DHT22;43465;50.728;4.160;2023-03-15T02:43:28;5.50;99.90
57636;DHT22;43465;50.728;4.160;2023-03-15T02:45:55;5.50;99.90
57636;DHT22;43465;50.728;4.160;2023-03-15T02:48:21;5.50;99.90
57636;DHT22;43465;50.728;4.160;2023-03-15T02:50:46;5.40;99.90
57636;DHT22;43465;50.728;4.160;2023-03-15T02:53:12;5.40;99.90
57636;DHT22;43465;50.728;4.160;2023-03-15T02:55:38;5.60;99.90
57636;DHT22;43465;50.728;4.160;2023-03-15T02:58:04;5.70;99.90
57636;DHT22;43465;50.728;4.160;2023-03-15T03:00:30;5.70;99.90
57636;DHT22;43465;50.728;4.160;2023-03-15T03:02:55;5.70;99.90
57636;DHT22;43465;50.728;4.160;2023-03-15T03:05:21;5.70;99.90
57636;DHT22;43465;50.728;4.160;2023-03-15T03:07:47;5.60;99.90
57636;DHT22;43465;50.728;4.160;2023-03-15T03:10:17;5.50;99.90
57636;DHT22;43465;50.728;4.160;2023-03-15T03:12:43;5.50;99.90
57636;DHT22;43465;50.728;4.160;2023-03-15T03:15:09;5.50;99.90
57636;DHT22;43465;50.728;4.160;2023-03-15T03:17:35;5.50;99.90
57636;DHT22;43465;50.728;4.160;2023-03-15T03:20:07;5.50;99.90
57636;DHT22;43465;50.728;4.160;2023-03-15T03:22:35;5.40;99.90
57636;DHT22;43465;50.728;4.160;2023-03-15T03:25:01;5.40;99.90
57636;DHT22;43465;50.728;4.160;2023-03-15T03:27:27;5.30;99.90
57636;DHT22;43465;50.728;4.160;2023-03-15T03:29:53;5.30;99.90
57636;DHT22;43465;50.728;4.160;2023-03-15T03:32:18;5.20;99.90
57636;DHT22;43465;50.728;4.160;2023-03-15T03:34:44;5.10;99.90
57636;DHT22;43465;50.728;4.160;2023-03-15T03:37:17;5.10;99.90
57636;DHT22;43465;50.728;4.160;2023-03-15T03:39:46;5.00;99.90
57636;DHT22;43465;50.728;4.160;2023-03-15T03:42:12;5.00;99.90
57636;DHT22;43465;50.728;4.160;2023-03-15T03:44:39;5.00;99.90
57636;DHT22;43465;50.728;4.160;2023-03-15T03:47:05;5.10;99.90
57636;DHT22;43465;50.728;4.160;2023-03-15T03:49:31;5.10;99.90
57636;DHT22;43465;50.728;4.160;2023-03-15T03:51:57;5.10;99.90
57636;DHT22;43465;50.728;4.160;2023-03-15T03:54:24;5.10;99.90
57636;DHT22;43465;50.728;4.160;2023-03-15T03:56:50;5.00;99.90
57636;DHT22;43465;50.728;4.160;2023-03-15T03:59:16;5.00;99.90
57636;DHT22;43465;50.728;4.160;2023-03-15T04:01:41;5.00;99.90
57636;DHT22;43465;50.728;4.160;2023-03-15T04:04:07;5.00;99.90
57636;DHT22;43465;50.728;4.160;2023-03-15T04:06:33;4.80;99.90
57636;DHT22;43465;50.728;4.160;2023-03-15T04:08:59;4.90;99.90
57636;DHT22;43465;50.728;4.160;2023-03-15T04:11:27;4.80;99.90
57636;DHT22;43465;50.728;4.160;2023-03-15T04:13:53;4.80;99.90
57636;DHT22;43465;50.728;4.160;2023-03-15T04:16:19;4.80;99.90
57636;DHT22;43465;50.728;4.160;2023-03-15T04:18:45;4.80;99.90
57636;DHT22;43465;50.728;4.160;2023-03-15T04:21:11;4.80;99.90
57636;DHT22;43465;50.728;4.160;2023-03-15T04:23:37;4.80;99.90
57636;DHT22;43465;50.728;4.160;2023-03-15T04:26:04;4.70;99.90
57636;DHT22;43465;50.728;4.160;2023-03-15T04:28:32;4.60;99.90
57636;DHT22;43465;50.728;4.160;2023-03-15T04:30:58;4.60;99.90
57636;DHT22;43465;50.728;4.160;2023-03-15T04:33:24;4.60;99.90
57636;DHT22;43465;50.728;4.160;2023-03-15T04:35:50;4.60;99.90
57636;DHT22;43465;50.728;4.160;2023-03-15T04:38:19;4.60;99.90
57636;DHT22;43465;50.728;4.160;2023-03-15T04:40:51;4.60;99.90
57636;DHT22;43465;50.728;4.160;2023-03-15T04:43:17;4.60;99.90
57636;DHT22;43465;50.728;4.160;2023-03-15T04:45:43;4.50;99.90
57636;DHT22;43465;50.728;4.160;2023-03-15T04:48:09;4.50;99.90
57636;DHT22;43465;50.728;4.160;2023-03-15T04:50:35;4.40;99.90
57636;DHT22;43465;50.728;4.160;2023-03-15T04:53:01;4.40;99.90
57636;DHT22;43465;50.728;4.160;2023-03-15T04:55:27;4.30;99.90
57636;DHT22;43465;50.728;4.160;2023-03-15T04:57:52;4.40;99.90
57636;DHT22;43465;50.728;4.160;2023-03-15T05:00:18;4.40;99.90
57636;DHT22;43465;50.728;4.160;2023-03-15T05:02:44;4.30;99.90
57636;DHT22;43465;50.728;4.160;2023-03-15T05:05:16;4.30;99.90
57636;DHT22;43465;50.728;4.160;2023-03-15T05:07:42;4.30;99.90
57636;DHT22;43465;50.728;4.160;2023-03-15T05:10:08;4.30;99.90
57636;DHT22;43465;50.728;4.160;2023-03-15T05:12:33;4.30;99.90
57636;DHT22;43465;50.728;4.160;2023-03-15T05:14:59;4.30;99.90
57636;DHT22;43465;50.728;4.160;2023-03-15T05:17:25;4.30;99.90
57636;DHT22;43465;50.728;4.160;2023-03-15T05:19:50;4.30;99.90
57636;DHT22;43465;50.728;4.160;2023-03-15T05:22:17;4.20;99.90
57636;DHT22;43465;50.728;4.160;2023-03-15T05:24:43;4.20;99.90
57636;DHT22;43465;50.728;4.160;2023-03-15T05:27:09;4.30;99.90
57636;DHT22;43465;50.728;4.160;2023-03-15T05:29:36;4.30;99.90
57636;DHT22;43465;50.728;4.160;2023-03-15T05:32:02;4.30;99.90
57636;DHT22;43465;50.728;4.160;2023-03-15T05:34:29;4.30;99.90
57636;DHT22;43465;50.728;4.160;2023-03-15T05:36:57;4.40;99.90
57636;DHT22;43465;50.728;4.160;2023-03-15T05:39:22;4.30;99.90
57636;DHT22;43465;50.728;4.160;2023-03-15T05:41:48;4.30;99.90
57636;DHT22;43465;50.728;4.160;2023-03-15T05:44:14;4.30;99.90
57636;DHT22;43465;50.728;4.160;2023-03-15T05:46:40;4.30;99.90
57636;DHT22;43465;50.728;4.160;2023-03-15T05:49:06;4.30;99.90
57636;DHT22;43465;50.728;4.160;2023-03-15T05:51:32;4.20;99.90
57636;DHT22;43465;50.728;4.160;2023-03-15T05:53:58;4.20;99.90
57636;DHT22;43465;50.728;4.160;2023-03-15T05:56:24;4.20;99.90
57636;DHT22;43465;50.728;4.160;2023-03-15T05:58:50;4.10;99.90
57636;DHT22;43465;50.728;4.160;2023-03-15T06:01:15;4.10;99.90
57636;DHT22;43465;50.728;4.160;2023-03-15T06:03:41;4.10;99.90
57636;DHT22;43465;50.728;4.160;2023-03-15T06:06:06;4.00;99.90
57636;DHT22;43465;50.728;4.160;2023-03-15T06:08:32;4.00;99.90
57636;DHT22;43465;50.728;4.160;2023-03-15T06:10:58;4.10;99.90
57636;DHT22;43465;50.728;4.160;2023-03-15T06:13:24;4.10;99.90
57636;DHT22;43465;50.728;4.160;2023-03-15T06:15:49;4.10;99.90
57636;DHT22;43465;50.728;4.160;2023-03-15T06:18:15;4.10;99.90
57636;DHT22;43465;50.728;4.160;2023-03-15T06:20:44;4.10;99.90
57636;DHT22;43465;50.728;4.160;2023-03-15T06:23:09;4.10;99.90
57636;DHT22;43465;50.728;4.160;2023-03-15T06:25:35;4.10;99.90
57636;DHT22;43465;50.728;4.160;2023-03-15T06:28:01;4.10;99.90
57636;DHT22;43465;50.728;4.160;2023-03-15T06:30:26;4.20;99.90
57636;DHT22;43465;50.728;4.160;2023-03-15T06:32:53;4.20;99.90
57636;DHT22;43465;50.728;4.160;2023-03-15T06:35:18;4.30;99.90
57636;DHT22;43465;50.728;4.160;2023-03-15T06:37:44;4.40;99.90
57636;DHT22;43465;50.728;4.160;2023-03-15T06:40:11;4.50;99.90
57636;DHT22;43465;50.728;4.160;2023-03-15T06:42:38;4.60;99.90
57636;DHT22;43465;50.728;4.160;2023-03-15T06:45:05;4.70;99.90
57636;DHT22;43465;50.728;4.160;2023-03-15T06:47:32;4.70;99.90
57636;DHT22;43465;50.728;4.160;2023-03-15T06:49:58;4.70;99.90
57636;DHT22;43465;50.728;4.160;2023-03-15T06:52:24;4.70;99.90
57636;DHT22;43465;50.728;4.160;2023-03-15T06:54:49;4.60;99.90
57636;DHT22;43465;50.728;4.160;2023-03-15T06:57:15;4.60;99.90
57636;DHT22;43465;50.728;4.160;2023-03-15T06:59:41;4.60;99.90
57636;DHT22;43465;50.728;4.160;2023-03-15T07:02:12;4.50;99.90
57636;DHT22;43465;50.728;4.160;2023-03-15T07:04:39;4.60;99.90
57636;DHT22;43465;50.728;4.160;2023-03-15T07:07:05;4.60;99.90
57636;DHT22;43465;50.728;4.160;2023-03-15T07:09:30;4.60;99.90
57636;DHT22;43465;50.728;4.160;2023-03-15T07:11:56;4.70;99.90
57636;DHT22;43465;50.728;4.160;2023-03-15T07:14:21;4.70;99.90
57636;DHT22;43465;50.728;4.160;2023-03-15T07:16:47;4.70;99.90
57636;DHT22;43465;50.728;4.160;2023-03-15T07:19:13;4.80;99.90
57636;DHT22;43465;50.728;4.160;2023-03-15T07:21:39;4.80;99.90
57636;DHT22;43465;50.728;4.160;2023-03-15T07:24:05;4.90;99.90
57636;DHT22;43465;50.728;4.160;2023-03-15T07:26:30;5.00;99.90
57636;DHT22;43465;50.728;4.160;2023-03-15T07:28:56;5.10;99.90
57636;DHT22;43465;50.728;4.160;2023-03-15T07:31:22;5.20;99.90
57636;DHT22;43465;50.728;4.160;2023-03-15T07:33:47;5.20;99.90
57636;DHT22;43465;50.728;4.160;2023-03-15T07:36:13;5.30;99.90
57636;DHT22;43465;50.728;4.160;2023-03-15T07:38:39;5.30;99.90
57636;DHT22;43465;50.728;4.160;2023-03-15T07:41:06;5.40;99.90
57636;DHT22;43465;50.728;4.160;2023-03-15T07:43:32;5.40;99.90
57636;DHT22;43465;50.728;4.160;2023-03-15T07:45:59;5.40;99.90
57636;DHT22;43465;50.728;4.160;2023-03-15T07:48:26;5.40;99.90
57636;DHT22;43465;50.728;4.160;2023-03-15T07:50:53;5.50;99.90
57636;DHT22;43465;50.728;4.160;2023-03-15T07:53:19;5.50;99.90
57636;DHT22;43465;50.728;4.160;2023-03-15T07:55:47;5.60;99.90
57636;DHT22;43465;50.728;4.160;2023-03-15T07:58:13;5.70;99.90
57636;DHT22;43465;50.728;4.160;2023-03-15T08:00:38;5.80;99.90
57636;DHT22;43465;50.728;4.160;2023-03-15T08:03:05;5.80;99.90
57636;DHT22;43465;50.728;4.160;2023-03-15T08:05:32;5.90;99.90
57636;DHT22;43465;50.728;4.160;2023-03-15T08:07:58;6.00;99.90
57636;DHT22;43465;50.728;4.160;2023-03-15T08:10:24;6.10;99.90
57636;DHT22;43465;50.728;4.160;2023-03-15T08:12:50;6.20;99.90
57636;DHT22;43465;50.728;4.160;2023-03-15T08:15:16;6.30;99.90
57636;DHT22;43465;50.728;4.160;2023-03-15T08:17:42;6.50;99.90
57636;DHT22;43465;50.728;4.160;2023-03-15T08:20:09;6.60;99.90
57636;DHT22;43465;50.728;4.160;2023-03-15T08:22:37;6.70;99.90
57636;DHT22;43465;50.728;4.160;2023-03-15T08:25:03;6.80;99.90
57636;DHT22;43465;50.728;4.160;2023-03-15T08:27:29;6.80;99.90
57636;DHT22;43465;50.728;4.160;2023-03-15T08:29:54;6.80;99.90
57636;DHT22;43465;50.728;4.160;2023-03-15T08:32:20;6.80;99.90
57636;DHT22;43465;50.728;4.160;2023-03-15T08:34:46;6.90;99.90
57636;DHT22;43465;50.728;4.160;2023-03-15T08:37:12;7.00;99.90
57636;DHT22;43465;50.728;4.160;2023-03-15T08:39:38;7.10;99.90
57636;DHT22;43465;50.728;4.160;2023-03-15T08:42:04;7.10;99.90
57636;DHT22;43465;50.728;4.160;2023-03-15T08:44:30;7.10;99.90
57636;DHT22;43465;50.728;4.160;2023-03-15T08:46:55;7.10;99.90
57636;DHT22;43465;50.728;4.160;2023-03-15T08:49:21;7.20;99.90
57636;DHT22;43465;50.728;4.160;2023-03-15T08:51:47;7.30;99.90
57636;DHT22;43465;50.728;4.160;2023-03-15T08:54:13;7.40;99.90
57636;DHT22;43465;50.728;4.160;2023-03-15T08:56:41;7.50;99.90
57636;DHT22;43465;50.728;4.160;2023-03-15T08:59:08;7.60;99.90
57636;DHT22;43465;50.728;4.160;2023-03-15T09:01:33;7.60;99.90
57636;DHT22;43465;50.728;4.160;2023-03-15T09:04:00;7.70;99.90
57636;DHT22;43465;50.728;4.160;2023-03-15T09:06:26;7.70;99.90
57636;DHT22;43465;50.728;4.160;2023-03-15T09:08:53;7.80;99.90
57636;DHT22;43465;50.728;4.160;2023-03-15T09:11:20;7.90;99.90
57636;DHT22;43465;50.728;4.160;2023-03-15T09:13:46;8.10;99.90
57636;DHT22;43465;50.728;4.160;2023-03-15T09:16:11;8.20;99.90
57636;DHT22;43465;50.728;4.160;2023-03-15T09:18:37;8.40;99.90
57636;DHT22;43465;50.728;4.160;2023-03-15T09:21:05;8.60;99.90
57636;DHT22;43465;50.728;4.160;2023-03-15T09:23:31;8.70;99.90
57636;DHT22;43465;50.728;4.160;2023-03-15T09:25:57;8.70;99.90
57636;DHT22;43465;50.728;4.160;2023-03-15T09:28:23;8.70;99.90
57636;DHT22;43465;50.728;4.160;2023-03-15T09:30:50;8.70;99.90
57636;DHT22;43465;50.728;4.160;2023-03-15T09:33:16;8.70;99.90
57636;DHT22;43465;50.728;4.160;2023-03-15T09:35:42;8.60;99.90
57636;DHT22;43465;50.728;4.160;2023-03-15T09:38:08;8.60;99.90
57636;DHT22;43465;50.728;4.160;2023-03-15T09:40:40;8.60;99.90
57636;DHT22;43465;50.728;4.160;2023-03-15T09:50:53;8.90;99.90
57636;DHT22;43465;50.728;4.160;2023-03-15T09:53:30;9.10;99.90
57636;DHT22;43465;50.728;4.160;2023-03-15T09:55:57;9.40;99.90
57636;DHT22;43465;50.728;4.160;2023-03-15T09:58:28;9.60;99.90
57636;DHT22;43465;50.728;4.160;2023-03-15T10:01:05;9.70;99.90
57636;DHT22;43465;50.728;4.160;2023-03-15T10:03:37;9.50;99.90
57636;DHT22;43465;50.728;4.160;2023-03-15T10:06:15;9.50;99.90
57636;DHT22;43465;50.728;4.160;2023-03-15T10:08:42;9.60;99.90
57636;DHT22;43465;50.728;4.160;2023-03-15T10:11:22;9.60;99.90
57636;DHT22;43465;50.728;4.160;2023-03-15T10:14:24;9.50;99.90
57636;DHT22;43465;50.728;4.160;2023-03-15T10:16:52;9.60;99.90
57636;DHT22;43465;50.728;4.160;2023-03-15T10:19:52;9.70;99.90
57636;DHT22;43465;50.728;4.160;2023-03-15T10:22:24;9.90;99.90
57636;DHT22;43465;50.728;4.160;2023-03-15T10:27:31;9.80;99.90
57636;DHT22;43465;50.728;4.160;2023-03-15T10:29:59;9.70;99.90
57636;DHT22;43465;50.728;4.160;2023-03-15T10:32:39;9.70;99.90
57636;DHT22;43465;50.728;4.160;2023-03-15T10:35:13;9.80;99.90
57636;DHT22;43465;50.728;4.160;2023-03-15T10:37:39;9.90;99.90
57636;DHT22;43465;50.728;4.160;2023-03-15T10:40:07;9.80;99.90
57636;DHT22;43465;50.728;4.160;2023-03-15T10:42:40;9.80;99.90
57636;DHT22;43465;50.728;4.160;2023-03-15T10:45:17;9.70;99.90
57636;DHT22;43465;50.728;4.160;2023-03-15T10:47:44;9.80;99.90
57636;DHT22;43465;50.728;4.160;2023-03-15T10:50:17;9.90;99.90
57636;DHT22;43465;50.728;4.160;2023-03-15T10:52:49;10.00;99.90
57636;DHT22;43465;50.728;4.160;2023-03-15T10:55:17;10.10;99.90
57636;DHT22;43465;50.728;4.160;2023-03-15T10:57:54;10.10;99.90
57636;DHT22;43465;50.728;4.160;2023-03-15T11:00:32;10.00;99.90
57636;DHT22;43465;50.728;4.160;2023-03-15T11:03:27;10.20;99.90
57636;DHT22;43465;50.728;4.160;2023-03-15T11:05:58;10.30;99.90
57636;DHT22;43465;50.728;4.160;2023-03-15T11:08:37;10.40;99.90
57636;DHT22;43465;50.728;4.160;2023-03-15T11:11:04;10.50;99.90
57636;DHT22;43465;50.728;4.160;2023-03-15T11:13:34;10.40;99.90
57636;DHT22;43465;50.728;4.160;2023-03-15T11:18:46;10.50;99.90
57636;DHT22;43465;50.728;4.160;2023-03-15T11:21:14;10.30;99.90
57636;DHT22;43465;50.728;4.160;2023-03-15T11:23:45;10.40;99.90
57636;DHT22;43465;50.728;4.160;2023-03-15T11:26:23;10.30;99.90
57636;DHT22;43465;50.728;4.160;2023-03-15T11:28:52;10.50;99.90
57636;DHT22;43465;50.728;4.160;2023-03-15T11:31:20;10.70;99.90
57636;DHT22;43465;50.728;4.160;2023-03-15T11:36:40;10.70;99.90
57636;DHT22;43465;50.728;4.160;2023-03-15T11:39:12;10.70;99.90
57636;DHT22;43465;50.728;4.160;2023-03-15T11:41:48;10.70;99.90
57636;DHT22;43465;50.728;4.160;2023-03-15T11:44:36;10.80;99.90
57636;DHT22;43465;50.728;4.160;2023-03-15T11:52:03;11.10;99.90
57636;DHT22;43465;50.728;4.160;2023-03-15T11:54:30;11.00;99.90
57636;DHT22;43465;50.728;4.160;2023-03-15T11:59:52;10.60;99.90
57636;DHT22;43465;50.728;4.160;2023-03-15T12:04:45;10.80;99.90
57636;DHT22;43465;50.728;4.160;2023-03-15T12:09:50;10.90;98.80
57636;DHT22;43465;50.728;4.160;2023-03-15T12:17:58;10.60;99.90
57636;DHT22;43465;50.728;4.160;2023-03-15T12:20:34;10.90;99.90
57636;DHT22;43465;50.728;4.160;2023-03-15T12:31:13;9.90;99.90
57636;DHT22;43465;50.728;4.160;2023-03-15T12:33:48;10.10;99.90
57636;DHT22;43465;50.728;4.160;2023-03-15T12:36:37;10.40;99.90
57636;DHT22;43465;50.728;4.160;2023-03-15T12:41:43;10.60;99.90
57636;DHT22;43465;50.728;4.160;2023-03-15T12:44:38;10.70;99.90
57636;DHT22;43465;50.728;4.160;2023-03-15T12:47:11;10.80;99.90
57636;DHT22;43465;50.728;4.160;2023-03-15T12:49:44;10.80;99.90
57636;DHT22;43465;50.728;4.160;2023-03-15T12:55:02;10.70;99.90
57636;DHT22;43465;50.728;4.160;2023-03-15T12:57:34;10.50;99.90
57636;DHT22;43465;50.728;4.160;2023-03-15T13:00:11;10.50;99.90
57636;DHT22;43465;50.728;4.160;2023-03-15T13:02:45;10.50;99.90
57636;DHT22;43465;50.728;4.160;2023-03-15T13:11:22;10.50;99.90
57636;DHT22;43465;50.728;4.160;2023-03-15T13:14:26;10.50;99.90
57636;DHT22;43465;50.728;4.160;2023-03-15T13:16:57;10.70;99.90
57636;DHT22;43465;50.728;4.160;2023-03-15T13:19:31;10.90;99.90
57636;DHT22;43465;50.728;4.160;2023-03-15T13:25:06;11.00;99.90
57636;DHT22;43465;50.728;4.160;2023-03-15T13:33:22;10.90;99.90
57636;DHT22;43465;50.728;4.160;2023-03-15T13:36:03;10.80;99.90
57636;DHT22;43465;50.728;4.160;2023-03-15T13:41:02;10.80;99.90
57636;DHT22;43465;50.728;4.160;2023-03-15T13:43:31;11.00;99.90
57636;DHT22;43465;50.728;4.160;2023-03-15T13:45:58;11.20;99.90
57636;DHT22;43465;50.728;4.160;2023-03-15T13:48:29;11.20;99.90
57636;DHT22;43465;50.728;4.160;2023-03-15T13:51:04;11.10;99.90
57636;DHT22;43465;50.728;4.160;2023-03-15T13:53:32;10.80;99.90
57636;DHT22;43465;50.728;4.160;2023-03-15T13:56:05;10.60;99.90
57636;DHT22;43465;50.728;4.160;2023-03-15T13:58:32;11.20;99.90
57636;DHT22;43465;50.728;4.160;2023-03-15T14:01:00;11.90;99.90
57636;DHT22;43465;50.728;4.160;2023-03-15T14:03:27;12.10;97.80
57636;DHT22;43465;50.728;4.160;2023-03-15T14:05:55;12.00;99.00
57636;DHT22;43465;50.728;4.160;2023-03-15T14:08:41;12.40;93.80
57636;DHT22;43465;50.728;4.160;2023-03-15T14:16:16;14.10;92.30
57636;DHT22;43465;50.728;4.160;2023-03-15T14:18:53;14.50;91.40
57636;DHT22;43465;50.728;4.160;2023-03-15T14:21:29;14.80;88.00
57636;DHT22;43465;50.728;4.160;2023-03-15T14:23:55;14.90;91.20
57636;DHT22;43465;50.728;4.160;2023-03-15T14:26:28;14.40;92.10
57636;DHT22;43465;50.728;4.160;2023-03-15T14:28:59;14.00;87.30
57636;DHT22;43465;50.728;4.160;2023-03-15T14:31:32;14.10;88.40
57636;DHT22;43465;50.728;4.160;2023-03-15T14:34:17;14.60;90.10
57636;DHT22;43465;50.728;4.160;2023-03-15T14:36:48;15.20;87.70
57636;DHT22;43465;50.728;4.160;2023-03-15T14:39:26;15.60;90.00
57636;DHT22;43465;50.728;4.160;2023-03-15T14:41:53;16.00;86.20
57636;DHT22;43465;50.728;4.160;2023-03-15T14:44:18;15.50;84.50
57636;DHT22;43465;50.728;4.160;2023-03-15T14:46:48;14.90;86.20
57636;DHT22;43465;50.728;4.160;2023-03-15T14:49:25;14.50;86.10
57636;DHT22;43465;50.728;4.160;2023-03-15T14:52:02;14.20;90.40
57636;DHT22;43465;50.728;4.160;2023-03-15T14:54:29;14.40;88.80
57636;DHT22;43465;50.728;4.160;2023-03-15T14:56:56;14.80;90.80
57636;DHT22;43465;50.728;4.160;2023-03-15T14:59:22;15.00;90.80
57636;DHT22;43465;50.728;4.160;2023-03-15T15:01:58;15.00;83.30
57636;DHT22;43465;50.728;4.160;2023-03-15T15:04:31;15.20;89.30
57636;DHT22;43465;50.728;4.160;2023-03-15T15:06:57;15.10;84.90
57636;DHT22;43465;50.728;4.160;2023-03-15T15:09:25;14.80;87.20
57636;DHT22;43465;50.728;4.160;2023-03-15T15:11:52;14.70;90.00
57636;DHT22;43465;50.728;4.160;2023-03-15T15:14:19;14.70;88.50
57636;DHT22;43465;50.728;4.160;2023-03-15T15:16:46;14.80;90.70
57636;DHT22;43465;50.728;4.160;2023-03-15T15:19:13;14.80;86.90
57636;DHT22;43465;50.728;4.160;2023-03-15T15:21:39;14.70;89.60
57636;DHT22;43465;50.728;4.160;2023-03-15T15:24:17;14.60;86.60
57636;DHT22;43465;50.728;4.160;2023-03-15T15:26:44;14.30;87.60
57636;DHT22;43465;50.728;4.160;2023-03-15T15:29:14;13.90;88.10
57636;DHT22;43465;50.728;4.160;2023-03-15T15:31:40;13.60;87.60
57636;DHT22;43465;50.728;4.160;2023-03-15T15:34:07;13.20;90.10
57636;DHT22;43465;50.728;4.160;2023-03-15T15:36:36;13.10;90.30
57636;DHT22;43465;50.728;4.160;2023-03-15T15:39:20;13.10;92.20
57636;DHT22;43465;50.728;4.160;2023-03-15T15:41:47;13.10;92.70
57636;DHT22;43465;50.728;4.160;2023-03-15T15:44:21;13.20;89.50
57636;DHT22;43465;50.728;4.160;2023-03-15T15:46:48;13.40;91.60
57636;DHT22;43465;50.728;4.160;2023-03-15T15:49:14;13.50;92.30
57636;DHT22;43465;50.728;4.160;2023-03-15T15:51:43;13.50;93.30
57636;DHT22;43465;50.728;4.160;2023-03-15T15:54:24;13.50;91.10
57636;DHT22;43465;50.728;4.160;2023-03-15T15:56:53;13.30;90.20
57636;DHT22;43465;50.728;4.160;2023-03-15T15:59:19;13.40;92.30
57636;DHT22;43465;50.728;4.160;2023-03-15T16:01:46;13.40;91.30
57636;DHT22;43465;50.728;4.160;2023-03-15T16:04:15;13.30;89.70
57636;DHT22;43465;50.728;4.160;2023-03-15T16:06:41;13.20;90.10
57636;DHT22;43465;50.728;4.160;2023-03-15T16:09:10;13.10;89.30
57636;DHT22;43465;50.728;4.160;2023-03-15T16:11:37;13.10;90.50
57636;DHT22;43465;50.728;4.160;2023-03-15T16:14:04;13.00;87.70
57636;DHT22;43465;50.728;4.160;2023-03-15T16:16:29;12.90;91.30
57636;DHT22;43465;50.728;4.160;2023-03-15T16:18:55;12.80;90.40
57636;DHT22;43465;50.728;4.160;2023-03-15T16:21:40;12.60;90.50
57636;DHT22;43465;50.728;4.160;2023-03-15T16:24:21;12.60;90.30
57636;DHT22;43465;50.728;4.160;2023-03-15T16:26:48;12.60;93.40
57636;DHT22;43465;50.728;4.160;2023-03-15T16:29:17;12.60;91.20
57636;DHT22;43465;50.728;4.160;2023-03-15T16:31:43;12.60;91.40
57636;DHT22;43465;50.728;4.160;2023-03-15T16:34:14;12.50;90.70
57636;DHT22;43465;50.728;4.160;2023-03-15T16:36:41;12.40;90.30
57636;DHT22;43465;50.728;4.160;2023-03-15T16:39:11;12.10;89.70
57636;DHT22;43465;50.728;4.160;2023-03-15T16:41:37;11.90;92.00
57636;DHT22;43465;50.728;4.160;2023-03-15T16:44:12;11.80;94.20
57636;DHT22;43465;50.728;4.160;2023-03-15T16:46:38;11.90;95.60
57636;DHT22;43465;50.728;4.160;2023-03-15T16:49:04;11.90;94.40
57636;DHT22;43465;50.728;4.160;2023-03-15T16:51:30;11.80;93.80
57636;DHT22;43465;50.728;4.160;2023-03-15T16:53:56;11.80;93.90
57636;DHT22;43465;50.728;4.160;2023-03-15T16:56:23;11.70;93.50
57636;DHT22;43465;50.728;4.160;2023-03-15T16:58:50;11.50;94.90
57636;DHT22;43465;50.728;4.160;2023-03-15T17:01:17;11.50;95.10
57636;DHT22;43465;50.728;4.160;2023-03-15T17:03:44;11.40;95.60
57636;DHT22;43465;50.728;4.160;2023-03-15T17:06:21;11.20;95.20